Time;durP1;ratioP1;P1;durP2;ratioP2;P2;SDS_P1;SDS_P2;PMS_P1;PMS_P2;Temp;Humidity;BMP_temperature;BMP_pressure;BME280_temperature;BME280_humidity;BME280_pressure;Samples;Min_cycle;Max_cycle;Signal;HPM_P1;HPM_P2
2021/01/11 00:01:10;;;;;;;35.00;21.08;;;3.90;98.30;;;;;;5152056;23;20973;-83
2021/01/11 00:03:12;;;;;;;36.17;20.35;;;4.00;98.30;;;;;;5141635;23;20210;-83
2021/01/11 00:05:15;;;;;;;38.78;23.02;;;4.00;98.30;;;;;;5142160;23;20268;-83
2021/01/11 00:07:20;;;;;;;36.58;19.00;;;4.00;98.30;;;;;;5143676;23;20206;-83
2021/01/11 00:09:22;;;;;;;35.17;16.77;;;3.90;98.30;;;;;;5152039;23;20210;-84
2021/01/11 00:11:24;;;;;;;37.92;22.08;;;3.90;98.30;;;;;;5149666;23;20206;-81
2021/01/11 00:13:26;;;;;;;44.63;24.67;;;3.90;98.30;;;;;;5141360;23;20206;-82
2021/01/11 00:15:28;;;;;;;39.72;22.42;;;3.90;98.30;;;;;;5141068;23;20284;-82
2021/01/11 00:17:32;;;;;;;37.63;22.67;;;3.90;98.30;;;;;;5141385;23;20840;-82
2021/01/11 00:19:35;;;;;;;32.35;18.98;;;3.80;98.30;;;;;;5141660;23;20216;-81
2021/01/11 00:21:39;;;;;;;34.15;20.73;;;3.90;98.30;;;;;;5145619;23;20649;-81
2021/01/11 00:23:40;;;;;;;43.35;23.95;;;3.90;98.30;;;;;;5153577;23;20210;-81
2021/01/11 00:25:42;;;;;;;44.33;25.63;;;3.80;98.30;;;;;;5144240;23;20206;-82
2021/01/11 00:27:44;;;;;;;38.45;20.48;;;3.90;98.30;;;;;;5154666;23;20285;-82
2021/01/11 00:29:53;;;;;;;44.53;24.55;;;3.90;98.30;;;;;;5146400;23;20202;-81
2021/01/11 00:31:58;;;;;;;50.67;27.65;;;3.90;98.30;;;;;;5146581;23;20225;-82
2021/01/11 00:34:00;;;;;;;43.25;22.55;;;3.90;98.30;;;;;;5153916;23;20206;-82
2021/01/11 00:36:03;;;;;;;44.75;26.67;;;3.90;98.30;;;;;;5145454;23;20240;-82
2021/01/11 00:38:06;;;;;;;44.50;24.45;;;3.90;98.30;;;;;;5153498;23;20209;-81
2021/01/11 00:40:09;;;;;;;44.38;26.80;;;3.90;98.30;;;;;;5151587;23;20256;-82
2021/01/11 00:42:18;;;;;;;46.53;23.70;;;3.90;98.30;;;;;;5149058;23;20557;-81
2021/01/11 00:47:06;;;;;;;53.03;30.00;;;3.80;98.30;;;;;;5128140;23;20205;-82
2021/01/11 00:49:11;;;;;;;58.30;31.70;;;3.80;98.30;;;;;;5149100;23;20209;-82
2021/01/11 00:51:15;;;;;;;56.10;32.45;;;3.90;98.30;;;;;;5147538;23;20229;-81
2021/01/11 00:53:20;;;;;;;51.40;28.80;;;3.90;98.30;;;;;;5147729;23;20201;-82
2021/01/11 00:55:27;;;;;;;54.22;30.60;;;3.90;98.30;;;;;;5147631;23;20229;-81
2021/01/11 00:57:29;;;;;;;51.58;29.30;;;3.90;98.30;;;;;;5147499;23;20206;-82
2021/01/11 00:59:31;;;;;;;56.55;29.48;;;3.80;98.30;;;;;;5139046;23;20430;-82
2021/01/11 01:01:37;;;;;;;56.03;28.77;;;3.80;98.30;;;;;;5148235;23;20206;-82
2021/01/11 01:03:41;;;;;;;67.10;33.78;;;3.80;98.30;;;;;;5147950;23;20212;-82
2021/01/11 01:05:43;;;;;;;54.00;29.23;;;3.90;98.30;;;;;;5147816;23;20197;-81
2021/01/11 01:07:45;;;;;;;56.50;30.70;;;3.80;98.30;;;;;;5146825;23;20202;-81
2021/01/11 01:09:50;;;;;;;60.28;31.88;;;3.80;98.30;;;;;;5147835;23;20257;-81
2021/01/11 01:11:55;;;;;;;57.05;31.77;;;3.80;98.30;;;;;;5148634;23;20515;-82
2021/01/11 01:13:57;;;;;;;57.83;31.45;;;3.80;98.30;;;;;;5147698;23;20201;-82
2021/01/11 01:15:59;;;;;;;51.97;28.75;;;3.80;98.30;;;;;;5147544;23;20248;-81
2021/01/11 01:18:01;;;;;;;56.72;30.35;;;3.80;98.30;;;;;;5147804;23;20475;-81
2021/01/11 01:20:04;;;;;;;61.25;30.20;;;3.80;98.30;;;;;;5148305;23;20649;-81
2021/01/11 01:22:06;;;;;;;52.58;27.00;;;3.70;98.30;;;;;;5140304;23;20217;-81
2021/01/11 01:24:08;;;;;;;57.58;28.92;;;3.80;98.30;;;;;;5139971;23;20210;-81
2021/01/11 01:26:12;;;;;;;46.42;25.38;;;3.80;98.30;;;;;;5149585;23;20928;-83
2021/01/11 01:28:15;;;;;;;55.35;29.48;;;3.70;98.30;;;;;;5148279;23;20567;-82
2021/01/11 01:30:18;;;;;;;58.10;32.03;;;3.80;98.30;;;;;;5148359;23;20197;-82
2021/01/11 01:32:20;;;;;;;59.13;32.95;;;3.80;98.30;;;;;;5147852;23;20201;-83
2021/01/11 01:34:22;;;;;;;49.78;29.67;;;3.80;98.30;;;;;;5148257;23;20308;-83
2021/01/11 01:36:25;;;;;;;61.75;30.55;;;3.80;98.30;;;;;;5147828;23;20280;-81
2021/01/11 01:38:28;;;;;;;55.65;29.83;;;3.80;98.30;;;;;;5148063;23;20276;-82
2021/01/11 01:40:30;;;;;;;54.80;30.58;;;3.70;98.30;;;;;;5148978;23;20209;-81
2021/01/11 01:42:34;;;;;;;60.53;31.45;;;3.80;98.30;;;;;;5150397;23;20724;-82
2021/01/11 01:44:39;;;;;;;53.75;29.30;;;3.80;98.30;;;;;;5141279;23;20204;-82
2021/01/11 01:46:43;;;;;;;63.72;32.78;;;3.80;98.30;;;;;;5149522;23;20252;-81
2021/01/11 01:48:46;;;;;;;55.80;31.20;;;3.80;98.30;;;;;;5149745;23;20293;-82
2021/01/11 01:50:48;;;;;;;56.42;28.00;;;3.80;98.30;;;;;;5150171;23;20202;-81
2021/01/11 01:52:50;;;;;;;57.20;33.15;;;3.80;98.30;;;;;;5150535;23;20535;-83
2021/01/11 01:54:53;;;;;;;58.22;30.63;;;3.90;98.30;;;;;;5152276;23;20206;-83
2021/01/11 01:56:55;;;;;;;57.17;31.27;;;3.90;98.30;;;;;;5151379;23;20674;-83
2021/01/11 01:58:59;;;;;;;57.30;31.95;;;3.80;98.30;;;;;;5149797;23;20197;-82
2021/01/11 02:01:07;;;;;;;41.38;22.35;;;3.80;98.30;;;;;;5149804;23;20201;-82
2021/01/11 02:03:10;;;;;;;60.83;30.90;;;3.80;98.30;;;;;;5149461;23;20213;-82
2021/01/11 02:05:15;;;;;;;61.55;31.08;;;3.80;98.30;;;;;;5149322;23;20213;-82
2021/01/11 02:07:27;;;;;;;54.00;29.85;;;3.80;98.30;;;;;;5150329;23;20280;-83
2021/01/11 02:09:42;;;;;;;51.38;26.50;;;3.80;98.30;;;;;;5150987;23;20705;-82
2021/01/11 02:11:51;;;;;;;57.00;30.33;;;3.90;98.30;;;;;;5149577;23;20194;-82
2021/01/11 02:14:13;;;;;;;52.90;28.30;;;3.90;98.30;;;;;;5142211;23;20288;-82
2021/01/11 02:16:23;;;;;;;56.75;29.55;;;3.90;98.30;;;;;;5150375;23;20213;-82
2021/01/11 02:18:38;;;;;;;63.03;32.95;;;3.90;98.30;;;;;;5149862;23;20201;-82
2021/01/11 02:21:14;;;;;;;54.67;31.60;;;3.90;98.30;;;;;;5149612;23;20584;-82
2021/01/11 02:23:46;;;;;;;51.30;25.55;;;3.80;98.30;;;;;;5140851;23;20205;-82
2021/01/11 02:25:54;;;;;;;57.80;30.83;;;3.90;98.30;;;;;;5123030;23;20214;-83
2021/01/11 02:28:00;;;;;;;56.50;29.35;;;3.80;98.30;;;;;;5149043;23;20657;-83
2021/01/11 02:30:24;;;;;;;52.70;29.40;;;3.90;98.30;;;;;;5150744;23;20206;-83
2021/01/11 02:32:28;;;;;;;51.17;25.10;;;3.90;98.30;;;;;;5151057;23;20206;-85
2021/01/11 02:34:33;;;;;;;55.00;28.25;;;3.90;98.30;;;;;;5151534;23;20202;-83
2021/01/11 02:36:35;;;;;;;65.00;30.48;;;3.90;98.30;;;;;;5151210;23;20288;-83
2021/01/11 02:38:38;;;;;;;62.08;28.52;;;3.90;98.30;;;;;;5151341;23;20665;-83
2021/01/11 02:40:41;;;;;;;54.05;28.92;;;3.90;98.30;;;;;;5152426;23;20237;-84
2021/01/11 02:42:43;;;;;;;51.00;24.42;;;3.90;98.30;;;;;;5151947;23;20221;-83
2021/01/11 02:44:47;;;;;;;55.17;27.65;;;3.90;98.30;;;;;;5152175;23;20213;-83
2021/01/11 02:46:50;;;;;;;64.25;31.10;;;3.90;98.30;;;;;;5150441;23;20210;-83
2021/01/11 02:48:55;;;;;;;62.03;31.55;;;3.90;98.30;;;;;;5150623;23;20214;-83
2021/01/11 02:51:09;;;;;;;55.08;27.35;;;3.90;98.30;;;;;;5151460;23;20209;-83
2021/01/11 02:53:31;;;;;;;50.42;27.02;;;3.90;98.30;;;;;;5150719;23;20205;-83
2021/01/11 02:55:43;;;;;;;52.47;23.90;;;3.90;98.30;;;;;;5150470;23;20939;-83
2021/01/11 02:57:57;;;;;;;59.67;32.47;;;3.90;98.30;;;;;;5150727;23;20205;-83
2021/01/11 03:00:04;;;;;;;69.30;32.67;;;3.90;98.30;;;;;;5151170;23;20201;-83
2021/01/11 03:02:10;;;;;;;46.67;21.67;;;3.90;98.30;;;;;;5151024;23;20209;-82
2021/01/11 03:04:20;;;;;;;59.28;31.88;;;3.90;98.30;;;;;;5152384;23;20202;-82
2021/01/11 03:06:30;;;;;;;57.70;29.80;;;3.90;98.30;;;;;;5141887;23;20671;-83
2021/01/11 03:08:32;;;;;;;57.67;29.23;;;3.90;98.30;;;;;;5140786;23;20531;-82
2021/01/11 03:10:34;;;;;;;68.13;30.92;;;3.90;98.30;;;;;;5149157;23;20212;-83
2021/01/11 03:12:36;;;;;;;66.18;32.92;;;3.90;98.30;;;;;;5149481;23;20258;-83
2021/01/11 03:14:43;;;;;;;51.80;23.45;;;3.90;98.30;;;;;;5149095;23;20237;-82
2021/01/11 03:16:45;;;;;;;72.50;33.20;;;3.90;98.30;;;;;;5148446;23;20292;-83
2021/01/11 03:18:48;;;;;;;75.57;32.05;;;3.90;98.30;;;;;;5148240;23;20260;-83
2021/01/11 03:20:51;;;;;;;49.15;21.75;;;3.90;98.30;;;;;;5148665;23;20592;-83
2021/01/11 03:22:53;;;;;;;58.53;26.33;;;3.90;98.30;;;;;;5147996;23;20297;-83
2021/01/11 03:24:55;;;;;;;79.90;34.42;;;3.90;98.30;;;;;;5148310;23;20617;-83
2021/01/11 03:26:58;;;;;;;73.25;30.33;;;3.90;98.30;;;;;;5148417;23;20208;-82
2021/01/11 03:29:04;;;;;;;77.20;34.60;;;4.00;98.30;;;;;;5147993;23;20683;-83
2021/01/11 03:31:13;;;;;;;66.28;28.67;;;4.00;98.30;;;;;;5148502;23;20205;-82
2021/01/11 03:33:15;;;;;;;83.75;37.28;;;4.00;98.30;;;;;;5148536;23;20541;-81
2021/01/11 03:35:22;;;;;;;78.90;36.88;;;3.90;98.30;;;;;;5148317;23;20280;-82
2021/01/11 03:37:24;;;;;;;92.05;40.60;;;4.00;98.30;;;;;;5148390;23;20695;-82
2021/01/11 03:39:26;;;;;;;93.25;39.05;;;3.90;98.30;;;;;;5140690;23;20210;-83
2021/01/11 03:41:28;;;;;;;85.28;35.85;;;3.90;98.30;;;;;;5148734;23;20259;-83
2021/01/11 03:43:30;;;;;;;108.97;42.53;;;3.90;98.30;;;;;;5148843;23;20202;-83
2021/01/11 03:45:33;;;;;;;107.35;39.53;;;3.90;98.30;;;;;;5149257;23;20202;-83
2021/01/11 03:47:35;;;;;;;72.05;29.10;;;3.90;98.30;;;;;;5149160;23;20292;-84
2021/01/11 03:49:38;;;;;;;93.65;39.50;;;3.90;98.30;;;;;;5148454;23;20204;-83
2021/01/11 03:51:41;;;;;;;104.18;41.28;;;3.90;98.30;;;;;;5151523;23;20213;-83
2021/01/11 03:53:45;;;;;;;120.43;44.25;;;3.90;98.30;;;;;;5148832;23;20198;-83
2021/01/11 03:55:47;;;;;;;105.22;44.35;;;3.90;98.30;;;;;;5148437;23;20210;-83
2021/01/11 03:57:49;;;;;;;105.78;43.30;;;3.80;98.30;;;;;;5150311;23;20229;-82
2021/01/11 04:00:15;;;;;;;109.18;42.20;;;3.80;98.30;;;;;;5149076;23;20208;-82
2021/01/11 04:02:19;;;;;;;92.22;37.67;;;3.80;98.30;;;;;;5149511;23;20202;-82
2021/01/11 04:04:22;;;;;;;103.97;40.80;;;3.80;98.30;;;;;;5150499;23;20210;-82
2021/01/11 04:06:24;;;;;;;101.38;42.78;;;3.80;98.30;;;;;;5150208;23;20972;-82
2021/01/11 04:08:37;;;;;;;103.55;41.85;;;3.90;98.30;;;;;;5149954;23;20198;-82
2021/01/11 04:10:42;;;;;;;82.65;31.88;;;3.80;98.30;;;;;;5152171;23;20566;-82
2021/01/11 04:12:45;;;;;;;84.72;37.30;;;3.80;98.30;;;;;;5149041;23;20277;-81
2021/01/11 04:14:48;;;;;;;88.20;36.10;;;3.90;98.30;;;;;;5149219;23;20671;-82
2021/01/11 04:16:55;;;;;;;92.72;38.88;;;3.80;98.30;;;;;;5149080;23;20248;-82
2021/01/11 04:18:57;;;;;;;92.30;42.20;;;3.80;98.30;;;;;;5149917;23;20205;-82
2021/01/11 04:20:59;;;;;;;88.25;37.80;;;3.80;98.30;;;;;;5141018;23;20280;-81
2021/01/11 04:23:04;;;;;;;88.82;38.85;;;3.70;98.30;;;;;;5149210;23;20783;-81
2021/01/11 04:25:07;;;;;;;75.05;33.30;;;3.80;98.30;;;;;;5140554;23;20213;-81
2021/01/11 04:27:10;;;;;;;81.18;37.88;;;3.80;98.30;;;;;;5148763;23;20221;-81
2021/01/11 04:29:12;;;;;;;89.22;37.42;;;3.80;98.30;;;;;;5148669;23;20550;-81
2021/01/11 04:31:16;;;;;;;92.00;38.95;;;3.80;98.30;;;;;;5148929;23;20248;-82
2021/01/11 04:33:18;;;;;;;92.13;40.55;;;3.80;98.30;;;;;;5149049;23;20236;-82
2021/01/11 04:35:21;;;;;;;76.70;34.92;;;3.80;98.30;;;;;;5149142;23;20240;-82
2021/01/11 04:37:26;;;;;;;76.00;31.30;;;3.80;98.30;;;;;;5148932;23;20221;-81
2021/01/11 04:39:28;;;;;;;53.78;22.35;;;3.80;98.30;;;;;;5149110;23;20198;-82
2021/01/11 04:41:35;;;;;;;68.07;27.95;;;3.80;98.30;;;;;;5148726;23;20201;-82
2021/01/11 04:43:42;;;;;;;79.75;39.67;;;3.70;98.30;;;;;;5149013;23;20712;-82
2021/01/11 04:45:48;;;;;;;89.10;38.58;;;3.70;98.30;;;;;;5141213;23;20204;-82
2021/01/11 04:51:19;;;;;;;83.00;37.22;;;3.80;98.30;;;;;;5048212;23;20216;-82
2021/01/11 04:53:26;;;;;;;84.45;38.28;;;3.70;98.30;;;;;;5149428;23;20259;-82
2021/01/11 04:55:35;;;;;;;94.13;41.75;;;3.80;98.30;;;;;;5149776;23;20201;-82
2021/01/11 04:57:52;;;;;;;96.90;45.53;;;3.80;98.30;;;;;;5149356;23;20205;-81
2021/01/11 05:00:01;;;;;;;68.60;33.95;;;3.80;98.30;;;;;;5149833;23;20232;-82
2021/01/11 05:02:06;;;;;;;81.90;37.10;;;3.80;98.30;;;;;;5141407;23;20723;-82
2021/01/11 05:04:08;;;;;;;86.53;39.50;;;3.80;98.30;;;;;;5150025;23;20205;-82
2021/01/11 05:06:11;;;;;;;95.47;40.05;;;3.80;98.30;;;;;;5149800;23;20507;-82
2021/01/11 05:08:13;;;;;;;78.40;36.42;;;3.80;98.30;;;;;;5149282;23;20536;-82
2021/01/11 05:10:21;;;;;;;66.38;30.70;;;3.70;98.30;;;;;;5152829;23;20206;-82
2021/01/11 05:12:23;;;;;;;85.68;36.85;;;3.70;98.30;;;;;;5142569;23;20205;-82
2021/01/11 05:14:26;;;;;;;109.75;44.95;;;3.70;98.30;;;;;;5142663;23;20737;-81
2021/01/11 05:16:29;;;;;;;92.13;41.97;;;3.70;98.30;;;;;;5150341;23;20202;-82
2021/01/11 05:18:32;;;;;;;73.03;32.83;;;3.70;98.30;;;;;;5150727;23;20657;-82
2021/01/11 05:20:37;;;;;;;102.68;44.80;;;3.70;98.30;;;;;;5150950;23;20273;-82
2021/01/11 05:22:39;;;;;;;93.65;41.85;;;3.70;98.30;;;;;;5143302;23;20213;-81
2021/01/11 05:24:42;;;;;;;88.03;41.72;;;3.70;98.30;;;;;;5150384;23;20208;-81
2021/01/11 05:26:45;;;;;;;92.53;43.97;;;3.70;98.30;;;;;;5150326;23;20252;-81
2021/01/11 05:28:48;;;;;;;87.68;39.83;;;3.70;98.30;;;;;;5150460;23;20665;-81
2021/01/11 05:30:54;;;;;;;85.20;40.08;;;3.80;98.30;;;;;;5150569;23;20212;-81
2021/01/11 05:32:56;;;;;;;92.32;39.90;;;3.70;98.30;;;;;;5150598;23;20713;-81
2021/01/11 05:34:58;;;;;;;106.10;42.22;;;3.70;98.30;;;;;;5152461;23;20255;-82
2021/01/11 05:37:00;;;;;;;92.47;41.55;;;3.70;98.30;;;;;;5153217;23;20661;-82
2021/01/11 05:39:08;;;;;;;90.88;40.28;;;3.70;98.30;;;;;;5152060;23;20208;-81
2021/01/11 05:41:16;;;;;;;98.93;44.25;;;3.70;98.30;;;;;;5150409;23;20205;-81
2021/01/11 05:43:19;;;;;;;94.70;43.75;;;3.70;98.30;;;;;;5150850;23;20224;-81
2021/01/11 05:45:23;;;;;;;82.40;35.92;;;3.70;98.30;;;;;;5150883;23;20249;-81
2021/01/11 05:47:31;;;;;;;89.53;37.40;;;3.70;98.30;;;;;;5150650;23;20197;-81
2021/01/11 05:49:33;;;;;;;96.32;42.90;;;3.70;98.30;;;;;;5150616;23;20206;-81
2021/01/11 05:51:37;;;;;;;99.90;44.38;;;3.70;98.30;;;;;;5150858;23;20198;-81
2021/01/11 05:53:41;;;;;;;68.63;34.78;;;3.70;98.30;;;;;;5150239;23;20696;-81
2021/01/11 05:55:44;;;;;;;78.13;36.85;;;3.70;98.30;;;;;;5151217;23;20202;-80
2021/01/11 05:58:10;;;;;;;81.90;33.42;;;3.70;98.30;;;;;;5150097;23;20542;-81
2021/01/11 06:00:13;;;;;;;70.95;28.38;;;3.70;98.30;;;;;;5116226;23;20228;-81
2021/01/11 06:02:16;;;;;;;95.43;40.58;;;3.70;98.30;;;;;;5150733;23;20592;-81
2021/01/11 06:04:19;;;;;;;86.05;43.20;;;3.70;98.30;;;;;;5151284;23;20202;-81
2021/01/11 06:06:21;;;;;;;94.75;43.08;;;3.70;98.30;;;;;;5142519;23;20229;-81
2021/01/11 06:08:24;;;;;;;70.00;30.83;;;3.70;98.30;;;;;;5151022;23;20197;-81
2021/01/11 06:10:30;;;;;;;76.88;35.40;;;3.70;98.30;;;;;;5142656;23;20221;-81
2021/01/11 06:12:34;;;;;;;75.43;35.63;;;3.70;98.30;;;;;;5151021;23;20584;-81
2021/01/11 06:14:38;;;;;;;80.65;40.90;;;3.70;98.30;;;;;;5149035;23;20237;-81
2021/01/11 06:16:41;;;;;;;67.05;32.05;;;3.70;98.30;;;;;;5154197;23;20208;-81
2021/01/11 06:18:45;;;;;;;64.53;32.15;;;3.70;98.30;;;;;;5150702;23;20205;-81
2021/01/11 06:20:48;;;;;;;67.97;34.88;;;3.60;98.30;;;;;;5150270;23;20205;-81
2021/01/11 06:23:12;;;;;;;70.10;32.33;;;3.60;98.30;;;;;;5150132;23;20546;-81
2021/01/11 06:25:33;;;;;;;77.53;33.17;;;3.60;98.30;;;;;;5150030;23;20252;-81
2021/01/11 06:27:38;;;;;;;68.03;31.63;;;3.70;98.30;;;;;;5149652;23;20202;-80
2021/01/11 06:29:46;;;;;;;63.30;31.20;;;3.60;98.30;;;;;;5150170;23;20294;-81
2021/01/11 06:31:48;;;;;;;73.25;32.55;;;3.60;98.30;;;;;;5150395;23;20201;-81
2021/01/11 06:33:51;;;;;;;61.30;30.60;;;3.60;98.30;;;;;;5150257;23;20201;-81
2021/01/11 06:36:04;;;;;;;64.10;31.95;;;3.60;98.30;;;;;;5150206;23;20213;-81
2021/01/11 06:38:10;;;;;;;62.40;31.83;;;3.60;98.30;;;;;;5149605;23;20284;-81
2021/01/11 06:40:23;;;;;;;52.58;24.77;;;3.60;98.30;;;;;;5150837;23;20739;-81
2021/01/11 06:42:28;;;;;;;59.05;28.13;;;3.60;98.30;;;;;;5150867;23;20220;-81
2021/01/11 06:44:46;;;;;;;49.95;28.95;;;3.60;98.30;;;;;;5176207;22;20223;-84
2021/01/11 06:46:48;;;;;;;62.38;30.00;;;3.50;98.30;;;;;;5199178;22;20192;-83
2021/01/11 06:48:52;;;;;;;50.83;26.63;;;3.50;98.30;;;;;;5190992;22;20208;-83
2021/01/11 06:51:05;;;;;;;54.90;26.15;;;3.50;98.30;;;;;;5191026;22;20208;-83
2021/01/11 06:53:07;;;;;;;47.90;25.95;;;3.50;98.30;;;;;;5191047;22;20528;-83
2021/01/11 06:55:11;;;;;;;38.55;20.85;;;3.50;98.30;;;;;;5165772;23;20259;-83
2021/01/11 06:57:16;;;;;;;45.28;26.00;;;3.50;98.30;;;;;;5165750;23;20225;-83
2021/01/11 06:59:21;;;;;;;46.78;29.40;;;3.50;98.30;;;;;;5165431;23;20738;-83
2021/01/11 07:01:29;;;;;;;50.60;25.50;;;3.40;98.30;;;;;;5166102;23;20241;-83
2021/01/11 07:03:49;;;;;;;46.20;24.10;;;3.40;98.30;;;;;;5174167;23;20220;-83
2021/01/11 07:05:51;;;;;;;39.67;21.95;;;3.40;98.30;;;;;;5166041;23;20227;-83
2021/01/11 07:08:02;;;;;;;41.53;25.10;;;3.40;98.30;;;;;;5165587;23;20288;-83
2021/01/11 07:10:04;;;;;;;45.20;22.98;;;3.30;98.30;;;;;;5174075;23;20205;-83
2021/01/11 07:12:06;;;;;;;39.30;22.73;;;3.30;98.30;;;;;;5173976;23;20220;-82
2021/01/11 07:14:10;;;;;;;45.60;24.55;;;3.30;98.30;;;;;;5165599;23;20212;-83
2021/01/11 07:16:14;;;;;;;35.40;19.02;;;3.20;98.30;;;;;;5166179;23;20262;-83
2021/01/11 07:18:47;;;;;;;39.55;22.80;;;3.20;98.30;;;;;;5174059;23;20201;-83
2021/01/11 07:20:53;;;;;;;38.17;23.15;;;3.20;98.30;;;;;;5166090;23;20200;-83
2021/01/11 07:22:58;;;;;;;34.60;20.60;;;3.20;98.30;;;;;;5165888;23;20307;-83
2021/01/11 07:25:07;;;;;;;34.97;19.45;;;3.20;98.30;;;;;;5173728;23;20239;-83
2021/01/11 07:27:09;;;;;;;38.72;24.67;;;3.20;98.30;;;;;;5173747;23;20201;-83
2021/01/11 07:29:13;;;;;;;38.83;21.83;;;3.10;98.30;;;;;;5166566;23;20282;-83
2021/01/11 07:31:18;;;;;;;35.30;19.85;;;3.10;98.30;;;;;;5166469;23;20746;-82
2021/01/11 07:33:30;;;;;;;;;;;;;;;;;;;;;
2021/01/11 07:35:38;;;;;;;35.72;20.75;;;3.10;98.30;;;;;;5173774;23;20197;-82
2021/01/11 07:37:41;;;;;;;34.83;20.25;;;3.10;98.30;;;;;;5173854;23;20555;-82
2021/01/11 07:39:43;;;;;;;40.72;22.48;;;3.10;98.30;;;;;;5173818;23;20227;-83
2021/01/11 07:41:48;;;;;;;34.05;21.05;;;3.10;98.30;;;;;;5173793;23;20201;-83
2021/01/11 07:43:50;;;;;;;35.72;21.90;;;3.10;98.30;;;;;;5173566;23;20205;-83
2021/01/11 07:46:03;;;;;;;37.92;21.60;;;3.10;98.30;;;;;;5165327;23;20212;-83
2021/01/11 07:48:07;;;;;;;34.20;21.42;;;3.10;98.30;;;;;;5173657;23;20223;-82
2021/01/11 07:50:10;;;;;;;32.00;19.35;;;3.10;98.30;;;;;;5174227;23;20205;-82
2021/01/11 07:52:14;;;;;;;35.15;22.80;;;3.10;98.30;;;;;;5174588;23;20203;-84
2021/01/11 07:54:17;;;;;;;34.92;21.52;;;3.10;98.30;;;;;;5173229;23;20284;-83
2021/01/11 07:56:21;;;;;;;35.63;22.45;;;3.10;98.30;;;;;;5165538;23;20534;-83
2021/01/11 07:58:24;;;;;;;34.25;21.60;;;3.10;98.30;;;;;;5165733;23;20204;-82
2021/01/11 08:00:26;;;;;;;37.75;22.58;;;3.10;98.30;;;;;;5174907;23;20201;-83
2021/01/11 08:02:30;;;;;;;34.38;21.17;;;3.10;98.30;;;;;;5176550;23;20201;-82
2021/01/11 08:04:37;;;;;;;40.97;23.58;;;3.10;98.30;;;;;;5178215;23;20209;-83
2021/01/11 08:06:51;;;;;;;38.60;22.58;;;3.00;98.30;;;;;;5180195;23;20201;-83
2021/01/11 08:08:54;;;;;;;36.55;23.80;;;3.10;98.30;;;;;;5186864;23;20201;-84
2021/01/11 08:10:59;;;;;;;35.50;19.95;;;3.00;98.30;;;;;;5168428;23;20284;-82
2021/01/11 08:13:04;;;;;;;38.47;23.55;;;3.00;98.30;;;;;;5167923;23;20288;-83
2021/01/11 08:15:09;;;;;;;34.65;23.13;;;3.00;98.30;;;;;;5174591;23;20204;-83
2021/01/11 08:17:21;;;;;;;33.58;21.52;;;3.00;98.30;;;;;;5166006;23;20209;-81
2021/01/11 08:19:23;;;;;;;37.63;22.05;;;3.00;98.30;;;;;;5173168;23;20935;-81
2021/01/11 08:21:25;;;;;;;37.35;24.15;;;3.00;98.30;;;;;;5178773;23;20231;-82
2021/01/11 08:27:02;;;;;;;41.75;24.60;;;3.10;98.30;;;;;;5152680;23;20181;-82
2021/01/11 08:29:07;;;;;;;38.80;24.73;;;3.10;98.30;;;;;;5178876;23;20213;-82
2021/01/11 08:31:16;;;;;;;38.67;23.10;;;3.00;98.30;;;;;;5178569;23;20228;-82
2021/01/11 08:33:19;;;;;;;37.97;24.42;;;3.00;98.30;;;;;;5163916;23;20240;-83
2021/01/11 08:35:22;;;;;;;39.03;25.95;;;3.00;98.30;;;;;;5171004;23;20259;-83
2021/01/11 08:37:32;;;;;;;38.25;23.55;;;3.00;98.30;;;;;;5173594;23;20209;-82
2021/01/11 08:39:38;;;;;;;40.47;23.08;;;3.10;98.30;;;;;;5174311;23;20200;-83
2021/01/11 08:41:43;;;;;;;45.67;27.88;;;3.10;98.30;;;;;;5173661;23;20565;-82
2021/01/11 08:43:45;;;;;;;38.47;24.85;;;3.00;98.30;;;;;;5174682;23;20295;-82
2021/01/11 08:45:52;;;;;;;39.50;25.02;;;3.00;98.30;;;;;;5174445;23;20275;-83
2021/01/11 08:48:04;;;;;;;42.22;23.52;;;3.00;98.30;;;;;;5174383;23;20204;-83
2021/01/11 08:50:08;;;;;;;41.88;26.00;;;3.10;98.30;;;;;;5175945;23;20292;-82
2021/01/11 08:53:18;;;;;;;41.67;27.20;;;3.00;98.30;;;;;;5115696;23;20275;-82
2021/01/11 08:55:25;;;;;;;44.60;28.13;;;3.10;98.30;;;;;;5178070;23;20691;-82
2021/01/11 08:57:30;;;;;;;42.78;27.98;;;3.10;98.30;;;;;;5176647;23;20249;-82
2021/01/11 08:59:35;;;;;;;40.40;24.83;;;3.00;98.30;;;;;;5170593;23;20201;-84
2021/01/11 09:01:38;;;;;;;37.42;24.83;;;3.10;98.30;;;;;;5179023;23;20737;-82
2021/01/11 09:03:42;;;;;;;40.20;24.65;;;3.00;98.30;;;;;;5177901;23;20201;-83
2021/01/11 09:05:44;;;;;;;42.80;26.02;;;3.00;98.30;;;;;;5167535;23;20215;-85
2021/01/11 09:07:46;;;;;;;36.72;23.25;;;3.10;98.30;;;;;;5178250;23;20247;-83
2021/01/11 09:09:48;;;;;;;39.28;25.20;;;3.10;98.30;;;;;;5176978;23;20276;-84
2021/01/11 09:12:01;;;;;;;48.30;28.27;;;3.10;98.30;;;;;;5174971;23;20287;-84
2021/01/11 09:14:08;;;;;;;43.08;26.05;;;3.10;98.30;;;;;;5175289;23;20196;-84
2021/01/11 09:16:17;;;;;;;48.28;27.70;;;3.10;98.30;;;;;;5175060;23;20604;-84
2021/01/11 09:18:27;;;;;;;42.55;28.10;;;3.10;98.30;;;;;;5166902;23;20215;-85
2021/01/11 09:20:46;;;;;;;48.33;30.00;;;3.10;98.30;;;;;;5175060;23;20256;-85
2021/01/11 09:23:10;;;;;;;43.20;26.95;;;3.10;98.30;;;;;;5163805;23;20291;-85
2021/01/11 09:25:32;;;;;;;50.83;32.10;;;3.20;98.30;;;;;;5175856;23;20877;-86
2021/01/11 09:30:18;;;;;;;58.70;32.22;;;3.20;98.30;;;;;;5165137;23;20573;-86
2021/01/11 09:35:31;;;;;;;64.13;34.03;;;3.20;98.30;;;;;;5176051;23;20201;-85
2021/01/11 09:37:41;;;;;;;56.42;31.83;;;3.10;98.30;;;;;;5175934;23;20236;-86
2021/01/11 09:39:45;;;;;;;66.30;35.70;;;3.20;98.30;;;;;;5175896;23;20284;-86
2021/01/11 09:41:50;;;;;;;58.83;33.65;;;3.20;98.30;;;;;;5175481;23;20217;-86
2021/01/11 09:44:13;;;;;;;58.42;36.47;;;3.10;98.30;;;;;;5174513;23;20272;-85
2021/01/11 09:46:26;;;;;;;61.03;32.28;;;3.10;98.30;;;;;;5175019;23;21053;-85
2021/01/11 09:48:39;;;;;;;63.58;35.05;;;3.10;98.30;;;;;;5175045;23;20645;-85
2021/01/11 09:51:15;;;;;;;65.93;35.55;;;3.20;98.30;;;;;;5175076;23;20589;-85
2021/01/11 09:53:30;;;;;;;62.72;31.50;;;3.20;98.30;;;;;;5174946;23;20833;-86
2021/01/11 09:55:35;;;;;;;62.22;31.23;;;3.20;98.30;;;;;;5175792;23;20205;-86
2021/01/11 09:57:38;;;;;;;71.07;34.10;;;3.20;98.30;;;;;;5175310;23;20675;-85
2021/01/11 09:59:54;;;;;;;73.93;35.30;;;3.10;98.30;;;;;;5174993;23;20247;-85
2021/01/11 10:02:32;;;;;;;63.22;32.13;;;3.10;98.30;;;;;;5158725;23;20726;-85
2021/01/11 10:04:45;;;;;;;71.05;36.17;;;3.10;98.30;;;;;;5174948;23;20258;-86
2021/01/11 10:06:59;;;;;;;63.25;33.60;;;3.10;98.30;;;;;;5174865;23;20201;-86
2021/01/11 10:09:06;;;;;;;66.55;35.10;;;3.10;98.30;;;;;;5175742;23;20205;-85
2021/01/11 10:11:34;;;;;;;70.13;33.45;;;3.10;98.30;;;;;;5175579;23;20200;-85
2021/01/11 10:13:42;;;;;;;80.45;38.50;;;3.10;98.30;;;;;;5176998;23;20201;-85
2021/01/11 10:15:44;;;;;;;64.85;34.58;;;3.20;98.30;;;;;;5177385;23;20288;-85
2021/01/11 10:17:47;;;;;;;69.63;37.15;;;3.20;98.30;;;;;;5174952;23;20204;-85
2021/01/11 10:19:58;;;;;;;68.20;30.35;;;3.10;98.30;;;;;;5175668;23;20712;-85
2021/01/11 10:22:01;;;;;;;77.75;36.70;;;3.10;98.30;;;;;;5175311;23;20593;-85
2021/01/11 10:26:37;;;;;;;66.70;33.08;;;3.10;98.30;;;;;;5114343;23;20204;-86
2021/01/11 10:28:39;;;;;;;75.80;34.53;;;3.10;98.30;;;;;;5174813;23;20595;-86
2021/01/11 10:30:48;;;;;;;62.22;29.60;;;3.10;98.30;;;;;;5166170;23;20312;-86
2021/01/11 10:33:01;;;;;;;63.65;33.33;;;3.10;98.30;;;;;;5175347;23;20495;-86
2021/01/11 10:35:20;;;;;;;69.85;32.83;;;3.10;98.30;;;;;;5144850;23;20223;-86
2021/01/11 10:37:43;;;;;;;70.80;33.83;;;3.10;98.30;;;;;;5174491;23;20511;-86
2021/01/11 10:40:38;;;;;;;81.60;35.30;;;3.10;98.30;;;;;;5175027;23;20598;-86
2021/01/11 10:42:56;;;;;;;71.38;32.38;;;3.10;98.30;;;;;;5162262;23;20201;-86
2021/01/11 10:45:14;;;;;;;90.55;47.80;;;3.00;98.30;;;;;;5174026;23;20239;-85
2021/01/11 10:47:32;;;;;;;74.85;37.20;;;3.10;98.30;;;;;;5174285;23;20201;-85
2021/01/11 10:49:59;;;;;;;69.80;29.40;;;3.10;98.30;;;;;;5174528;23;20204;-86
2021/01/11 10:52:06;;;;;;;77.65;33.60;;;3.00;98.30;;;;;;5174966;23;20583;-86
2021/01/11 10:54:33;;;;;;;72.97;33.50;;;3.10;98.30;;;;;;5175302;23;20200;-86
2021/01/11 10:56:57;;;;;;;71.38;32.88;;;3.00;98.30;;;;;;5174143;23;20205;-86
2021/01/11 10:59:09;;;;;;;67.50;33.17;;;3.00;98.30;;;;;;5174825;23;20427;-86
2021/01/11 11:01:30;;;;;;;66.68;34.88;;;3.00;98.30;;;;;;5175039;23;20200;-85
2021/01/11 11:04:00;;;;;;;83.85;34.00;;;3.00;98.30;;;;;;5166210;23;20227;-86
2021/01/11 11:12:42;;;;;;;71.55;32.85;;;3.00;98.30;;;;;;5175172;23;20231;-86
2021/01/11 11:14:52;;;;;;;66.00;29.30;;;2.90;98.30;;;;;;5178353;23;20284;-84
2021/01/11 11:16:55;;;;;;;65.28;32.80;;;3.00;98.30;;;;;;5178219;23;20205;-84
2021/01/11 11:18:57;;;;;;;68.25;30.63;;;3.00;98.30;;;;;;5179711;23;20673;-84